createdAt,value
2022-09-12T00:02:21.932Z,18.50
2022-09-12T00:04:49.504Z,18.50
2022-09-12T00:07:16.936Z,18.50
2022-09-12T00:09:45.405Z,18.40
2022-09-12T00:12:12.421Z,18.30
2022-09-12T00:14:39.556Z,18.40
2022-09-12T00:17:06.563Z,18.40
2022-09-12T00:19:33.696Z,18.40
2022-09-12T00:22:00.909Z,18.30
2022-09-12T00:24:28.127Z,18.20
2022-09-12T00:26:56.489Z,18.30
2022-09-12T00:29:23.638Z,18.30
2022-09-12T00:31:51.064Z,18.20
2022-09-12T00:34:18.199Z,18.10
2022-09-12T00:36:45.227Z,18.10
2022-09-12T00:39:16.814Z,17.90
2022-09-12T00:41:44.657Z,17.90
2022-09-12T00:44:46.172Z,18.00
2022-09-12T00:47:16.128Z,18.20
2022-09-12T00:49:48.216Z,18.20
2022-09-12T00:52:20.420Z,18.20
2022-09-12T00:54:49.798Z,18.10
2022-09-12T00:57:18.147Z,18.10
2022-09-12T00:59:49.057Z,17.90
2022-09-12T01:02:16.659Z,17.80
2022-09-12T01:04:45.261Z,17.90
2022-09-12T01:07:15.431Z,17.80
2022-09-12T01:09:45.317Z,17.80
2022-09-12T01:12:15.225Z,17.80
2022-09-12T01:14:42.763Z,17.90
2022-09-12T01:17:14.986Z,17.90
2022-09-12T01:20:16.692Z,17.90
2022-09-12T01:23:13.906Z,17.90
2022-09-12T01:26:00.278Z,17.90
2022-09-12T01:28:50.871Z,17.90
2022-09-12T01:31:24.591Z,17.90
2022-09-12T01:34:05.166Z,17.90
2022-09-12T01:36:42.918Z,17.80
2022-09-12T01:39:18.295Z,17.80
2022-09-12T01:41:54.544Z,17.70
2022-09-12T01:44:30.904Z,17.60
2022-09-12T01:47:05.480Z,17.50
2022-09-12T01:49:38.133Z,17.60
2022-09-12T01:52:12.785Z,17.60
2022-09-12T01:54:45.406Z,17.50
2022-09-12T01:57:20.467Z,17.50
2022-09-12T01:59:51.585Z,17.50
2022-09-12T02:02:26.275Z,17.40
2022-09-12T02:04:59.919Z,17.40
2022-09-12T02:07:33.315Z,17.40
2022-09-12T02:10:07.601Z,17.30
2022-09-12T02:12:43.023Z,17.30
2022-09-12T02:15:13.309Z,17.30
2022-09-12T02:17:44.285Z,17.20
2022-09-12T02:20:31.100Z,17.20
2022-09-12T02:23:09.897Z,17.20
2022-09-12T02:25:40.056Z,17.10
2022-09-12T02:28:11.482Z,17.20
2022-09-12T02:30:44.500Z,17.20
2022-09-12T02:33:21.827Z,17.20
2022-09-12T02:35:53.108Z,17.20
2022-09-12T02:38:24.951Z,17.10
2022-09-12T02:40:52.212Z,17.10
2022-09-12T02:43:19.284Z,17.10
2022-09-12T02:45:46.384Z,17.00
2022-09-12T02:48:21.979Z,17.00
2022-09-12T02:50:49.321Z,17.00
2022-09-12T02:53:18.092Z,17.00
2022-09-12T02:55:46.152Z,17.00
2022-09-12T02:58:18.273Z,17.00
2022-09-12T03:00:51.934Z,17.00
2022-09-12T03:03:42.698Z,17.00
2022-09-12T03:06:17.204Z,16.90
2022-09-12T03:09:01.728Z,16.80
2022-09-12T03:11:56.937Z,16.80
2022-09-12T03:14:45.361Z,16.80
2022-09-12T03:17:24.342Z,16.80
2022-09-12T03:19:59.118Z,16.80
2022-09-12T03:22:33.561Z,16.90
2022-09-12T03:25:11.233Z,16.90
2022-09-12T03:27:43.846Z,16.80
2022-09-12T03:30:12.656Z,16.90
2022-09-12T03:32:45.149Z,16.80
2022-09-12T03:35:17.933Z,16.90
2022-09-12T03:37:48.382Z,16.90
2022-09-12T03:40:15.612Z,16.90
2022-09-12T03:42:42.712Z,16.90
2022-09-12T03:45:11.195Z,16.90
2022-09-12T03:47:38.346Z,16.90
2022-09-12T03:50:06.522Z,16.80
2022-09-12T03:52:35.136Z,16.90
2022-09-12T03:55:02.935Z,16.90
2022-09-12T03:57:29.976Z,16.90
2022-09-12T03:59:57.000Z,17.00
2022-09-12T04:02:24.162Z,17.00
2022-09-12T04:04:51.319Z,17.00
2022-09-12T04:07:18.676Z,17.00
2022-09-12T04:09:47.222Z,17.10
2022-09-12T04:12:14.287Z,17.10
2022-09-12T04:14:41.447Z,17.10
2022-09-12T04:17:08.629Z,17.10
2022-09-12T04:19:35.755Z,17.00
2022-09-12T04:22:03.142Z,17.00
2022-09-12T04:24:30.264Z,16.90
2022-09-12T04:26:58.883Z,17.00
2022-09-12T04:29:26.176Z,17.00
2022-09-12T04:31:53.295Z,17.00
2022-09-12T04:34:20.331Z,17.10
2022-09-12T04:36:47.331Z,17.20
2022-09-12T04:39:14.591Z,17.20
2022-09-12T04:41:41.949Z,17.30
2022-09-12T04:44:13.409Z,17.10
2022-09-12T04:46:42.567Z,17.20
2022-09-12T04:49:09.729Z,17.20
2022-09-12T04:51:38.225Z,17.10
2022-09-12T04:54:07.297Z,17.20
2022-09-12T04:56:38.144Z,17.20
2022-09-12T04:59:05.752Z,17.20
2022-09-12T05:01:34.556Z,17.30
2022-09-12T05:04:02.593Z,17.20
2022-09-12T05:06:31.378Z,17.30
2022-09-12T05:08:59.817Z,17.30
2022-09-12T05:11:46.826Z,17.40
2022-09-12T05:14:19.560Z,17.30
2022-09-12T05:16:49.635Z,17.30
2022-09-12T05:19:17.364Z,17.40
2022-09-12T05:21:44.433Z,17.30
2022-09-12T05:24:12.135Z,17.20
2022-09-12T05:26:39.222Z,17.20
2022-09-12T05:29:07.346Z,17.40
2022-09-12T05:31:34.984Z,17.60
2022-09-12T05:34:10.034Z,17.60
2022-09-12T05:36:37.629Z,17.70
2022-09-12T05:39:04.923Z,17.70
2022-09-12T05:41:34.338Z,17.70
2022-09-12T05:44:03.663Z,17.80
2022-09-12T05:46:32.727Z,17.90
2022-09-12T05:49:05.539Z,18.00
2022-09-12T05:51:35.204Z,17.80
2022-09-12T05:54:04.063Z,18.00
2022-09-12T05:56:33.490Z,18.10
2022-09-12T05:59:02.369Z,18.20
2022-09-12T06:01:31.320Z,18.30
2022-09-12T06:04:00.893Z,18.20
2022-09-12T06:06:31.311Z,18.10
2022-09-12T06:09:00.541Z,18.20
2022-09-12T06:11:29.906Z,18.30
2022-09-12T06:13:58.387Z,18.50
2022-09-12T06:16:27.535Z,18.40
2022-09-12T06:18:55.817Z,18.40
2022-09-12T06:21:24.732Z,18.20
2022-09-12T06:23:54.265Z,18.40
2022-09-12T06:26:23.532Z,18.30
2022-09-12T06:28:51.300Z,18.30
2022-09-12T06:31:20.554Z,18.20
2022-09-12T06:33:49.925Z,18.10
2022-09-12T06:36:18.635Z,17.90
2022-09-12T06:38:48.920Z,17.90
2022-09-12T06:41:17.447Z,17.90
2022-09-12T06:43:44.496Z,18.10
2022-09-12T06:46:13.165Z,17.90
2022-09-12T06:48:42.183Z,18.00
2022-09-12T06:51:13.287Z,18.40
2022-09-12T06:53:41.330Z,19.70
2022-09-12T06:56:12.642Z,21.60
2022-09-12T06:58:41.122Z,24.00
2022-09-12T07:01:09.811Z,25.70
2022-09-12T07:03:38.139Z,26.80
2022-09-12T07:06:06.430Z,26.90
2022-09-12T07:08:34.117Z,25.80
2022-09-12T07:11:09.744Z,24.90
2022-09-12T07:13:36.828Z,24.70
2022-09-12T07:16:06.138Z,24.00
2022-09-12T07:18:33.685Z,23.80
2022-09-12T07:21:01.989Z,24.30
2022-09-12T07:23:29.802Z,25.90
2022-09-12T07:25:58.702Z,27.40
2022-09-12T07:28:26.190Z,28.50
2022-09-12T07:30:55.984Z,29.40
2022-09-12T07:33:27.409Z,30.10
2022-09-12T07:35:54.702Z,30.70
2022-09-12T07:38:22.120Z,30.30
2022-09-12T07:40:49.214Z,29.50
2022-09-12T07:43:16.300Z,28.50
2022-09-12T07:45:43.569Z,27.40
2022-09-12T07:48:10.681Z,26.70
2022-09-12T07:50:43.169Z,26.40
2022-09-12T07:53:12.159Z,26.50
2022-09-12T07:55:39.409Z,26.50
2022-09-12T07:58:06.557Z,26.30
2022-09-12T08:00:35.941Z,26.10
2022-09-12T08:03:03.801Z,25.70
2022-09-12T08:05:30.953Z,25.40
2022-09-12T08:07:59.325Z,25.20
2022-09-12T08:10:26.372Z,25.30
2022-09-12T08:12:53.571Z,25.60
2022-09-12T08:15:20.738Z,25.80
2022-09-12T08:17:47.770Z,26.20
2022-09-12T08:20:15.027Z,26.40
2022-09-12T08:22:43.223Z,26.40
2022-09-12T08:25:11.768Z,26.70
2022-09-12T08:27:39.308Z,27.30
2022-09-12T08:30:07.321Z,27.20
2022-09-12T08:32:35.108Z,28.00
2022-09-12T08:35:03.003Z,28.50
2022-09-12T08:37:30.380Z,29.70
2022-09-12T08:39:57.988Z,29.90
2022-09-12T08:42:47.148Z,30.50
2022-09-12T08:45:20.657Z,30.80
2022-09-12T08:47:48.580Z,31.30
2022-09-12T08:50:18.104Z,31.60
2022-09-12T08:52:54.777Z,31.70
2022-09-12T08:55:33.563Z,32.30
2022-09-12T08:58:10.602Z,32.40
2022-09-12T09:00:49.440Z,33.10
2022-09-12T09:03:44.455Z,33.10
2022-09-12T09:06:23.264Z,33.20
2022-09-12T09:08:58.839Z,33.30
2022-09-12T09:11:41.827Z,33.70
2022-09-12T09:14:44.954Z,33.60
2022-09-12T09:17:19.433Z,33.80
2022-09-12T09:19:51.477Z,33.00
2022-09-12T09:22:27.038Z,32.90
2022-09-12T09:25:05.075Z,32.90
2022-09-12T09:27:40.760Z,32.80
2022-09-12T09:30:15.433Z,32.50
2022-09-12T09:32:44.725Z,33.50
2022-09-12T09:35:18.844Z,33.20
2022-09-12T09:38:01.052Z,33.20
2022-09-12T09:40:37.389Z,33.70
2022-09-12T09:43:12.340Z,33.40
2022-09-12T09:45:44.497Z,34.00
2022-09-12T09:48:19.396Z,34.60
2022-09-12T09:50:49.495Z,34.80
2022-09-12T09:53:37.203Z,34.60
2022-09-12T09:56:11.835Z,34.80
2022-09-12T09:58:40.628Z,34.30
2022-09-12T10:01:16.088Z,35.20
2022-09-12T10:03:50.245Z,36.10
2022-09-12T10:06:32.353Z,36.80
2022-09-12T10:09:17.972Z,36.90
2022-09-12T10:11:46.897Z,37.10
2022-09-12T10:14:32.135Z,37.10
2022-09-12T10:17:01.676Z,37.30
2022-09-12T10:19:35.445Z,37.20
2022-09-12T10:22:03.895Z,37.10
2022-09-12T10:24:34.786Z,37.80
2022-09-12T10:27:07.798Z,37.30
2022-09-12T10:29:44.897Z,37.70
2022-09-12T10:32:21.519Z,38.10
2022-09-12T10:34:51.202Z,39.10
2022-09-12T10:37:24.473Z,38.90
2022-09-12T10:39:54.565Z,38.80
2022-09-12T10:42:44.319Z,38.50
2022-09-12T10:45:20.438Z,38.80
2022-09-12T10:47:49.619Z,39.00
2022-09-12T10:50:27.084Z,39.00
2022-09-12T10:52:54.435Z,38.70
2022-09-12T10:55:29.571Z,38.90
2022-09-12T10:58:24.661Z,38.60
2022-09-12T11:01:03.624Z,37.50
2022-09-12T11:03:49.851Z,37.90
2022-09-12T11:06:21.281Z,37.40
2022-09-12T11:09:03.588Z,36.70
2022-09-12T11:11:45.452Z,36.70
2022-09-12T11:14:28.313Z,36.50
2022-09-12T11:17:02.958Z,36.50
2022-09-12T11:19:53.301Z,36.30
2022-09-12T11:22:32.785Z,36.60
2022-09-12T11:25:13.018Z,36.60
2022-09-12T11:28:14.134Z,36.10
2022-09-12T11:30:48.475Z,35.80
2022-09-12T11:33:28.800Z,35.50
2022-09-12T11:36:00.151Z,35.30
2022-09-12T11:38:45.973Z,35.50
2022-09-12T11:41:20.612Z,35.00
2022-09-12T11:43:51.885Z,34.90
2022-09-12T11:46:24.468Z,35.50
2022-09-12T11:48:57.997Z,35.40
2022-09-12T11:51:30.729Z,35.30
2022-09-12T11:54:06.937Z,35.60
2022-09-12T11:56:36.215Z,35.90
2022-09-12T11:59:12.252Z,35.80
2022-09-12T12:01:48.504Z,35.70
2022-09-12T12:04:22.237Z,36.10
2022-09-12T12:06:56.624Z,35.90
2022-09-12T12:09:24.603Z,35.50
2022-09-12T12:11:57.924Z,35.40
2022-09-12T12:14:30.268Z,35.30
2022-09-12T12:16:57.655Z,35.40
2022-09-12T12:19:33.900Z,35.20
2022-09-12T12:22:13.013Z,35.10
2022-09-12T12:25:01.436Z,35.50
2022-09-12T12:27:49.220Z,35.70
2022-09-12T12:30:59.989Z,35.60
2022-09-12T12:34:01.562Z,35.50
2022-09-12T12:36:40.458Z,35.40
2022-09-12T12:39:48.217Z,35.70
2022-09-12T12:42:52.483Z,35.70
2022-09-12T12:45:58.697Z,35.20
2022-09-12T12:48:26.096Z,35.40
2022-09-12T12:50:53.318Z,35.40
2022-09-12T12:53:24.867Z,35.10
2022-09-12T12:55:53.169Z,35.30
2022-09-12T12:58:31.793Z,35.10
2022-09-12T13:01:12.084Z,34.90
2022-09-12T13:03:43.673Z,34.30
2022-09-12T13:06:29.223Z,34.50
2022-09-12T13:09:00.480Z,33.10
2022-09-12T13:11:33.959Z,33.70
2022-09-12T13:14:03.146Z,34.30
2022-09-12T13:16:55.131Z,34.70
2022-09-12T13:19:28.205Z,35.00
2022-09-12T13:21:55.495Z,35.00
2022-09-12T13:24:23.704Z,34.70
2022-09-12T13:26:51.148Z,34.30
2022-09-12T13:29:19.622Z,33.70
2022-09-12T13:31:52.842Z,33.50
2022-09-12T13:34:22.745Z,33.30
2022-09-12T13:37:22.512Z,33.30
2022-09-12T13:39:55.491Z,33.30
2022-09-12T13:42:39.027Z,33.50
2022-09-12T13:45:13.318Z,33.60
2022-09-12T13:47:44.415Z,33.40
2022-09-12T13:50:19.676Z,33.50
2022-09-12T13:52:51.448Z,33.70
2022-09-12T13:55:30.440Z,33.50
2022-09-12T13:58:00.389Z,33.30
2022-09-12T14:00:31.630Z,32.90
2022-09-12T14:03:19.088Z,33.00
2022-09-12T14:05:57.386Z,33.10
2022-09-12T14:08:24.857Z,33.10
2022-09-12T14:10:54.560Z,32.90
2022-09-12T14:13:24.916Z,32.80
2022-09-12T14:15:56.030Z,32.20
2022-09-12T14:18:27.090Z,31.60
2022-09-12T14:20:56.919Z,31.60
2022-09-12T14:23:29.807Z,31.50
2022-09-12T14:25:59.898Z,31.50
2022-09-12T14:28:30.282Z,31.30
2022-09-12T14:31:05.211Z,31.00
2022-09-12T14:33:46.959Z,30.80
2022-09-12T14:36:21.912Z,30.80
2022-09-12T14:38:51.573Z,30.40
2022-09-12T14:41:24.401Z,29.90
2022-09-12T14:43:56.459Z,29.40
2022-09-12T14:46:28.481Z,29.80
2022-09-12T14:49:02.146Z,29.80
2022-09-12T14:51:33.892Z,29.80
2022-09-12T14:54:01.484Z,29.70
2022-09-12T14:56:40.999Z,29.70
2022-09-12T14:59:26.422Z,29.70
2022-09-12T15:02:26.275Z,29.60
2022-09-12T15:05:15.543Z,29.70
2022-09-12T15:07:47.168Z,29.90
2022-09-12T15:10:23.001Z,30.00
2022-09-12T15:12:50.407Z,30.10
2022-09-12T15:15:20.199Z,30.20
2022-09-12T15:17:47.449Z,30.30
2022-09-12T15:20:16.022Z,30.50
2022-09-12T15:22:43.612Z,30.40
2022-09-12T15:25:12.607Z,30.20
2022-09-12T15:27:40.941Z,29.90
2022-09-12T15:30:13.429Z,29.70
2022-09-12T15:32:42.913Z,29.60
2022-09-12T15:35:14.845Z,29.30
2022-09-12T15:37:43.595Z,29.00
2022-09-12T15:40:16.002Z,29.00
2022-09-12T15:42:43.871Z,29.30
2022-09-12T15:45:17.414Z,29.30
2022-09-12T15:47:44.802Z,29.20
2022-09-12T15:50:12.012Z,29.30
2022-09-12T15:52:39.678Z,29.30
2022-09-12T15:55:13.489Z,29.20
2022-09-12T15:57:40.702Z,29.20
2022-09-12T16:00:08.950Z,29.30
2022-09-12T16:02:39.053Z,29.20
2022-09-12T16:05:11.432Z,29.30
2022-09-12T16:07:38.548Z,29.00
2022-09-12T16:10:13.493Z,28.80
2022-09-12T16:12:45.026Z,28.60
2022-09-12T16:15:14.668Z,28.50
2022-09-12T16:17:42.120Z,28.40
2022-09-12T16:20:10.202Z,28.40
2022-09-12T16:22:37.891Z,28.40
2022-09-12T16:25:08.167Z,28.40
2022-09-12T16:27:37.643Z,28.50
2022-09-12T16:30:06.110Z,28.50
2022-09-12T16:32:33.243Z,28.50
2022-09-12T16:35:00.428Z,28.50
2022-09-12T16:37:29.880Z,28.20
2022-09-12T16:39:57.063Z,28.00
2022-09-12T16:42:24.377Z,27.90
2022-09-12T16:44:52.971Z,27.90
2022-09-12T16:47:20.089Z,27.70
2022-09-12T16:49:47.285Z,27.80
2022-09-12T16:52:16.588Z,27.80
2022-09-12T16:54:46.672Z,27.80
2022-09-12T16:57:14.066Z,27.70
2022-09-12T16:59:41.547Z,27.70
2022-09-12T17:02:12.298Z,27.40
2022-09-12T17:04:39.577Z,27.40
2022-09-12T17:07:06.971Z,27.40
2022-09-12T17:09:34.215Z,27.30
2022-09-12T17:12:01.615Z,27.30
2022-09-12T17:14:29.125Z,27.30
2022-09-12T17:16:56.269Z,27.20
2022-09-12T17:19:32.996Z,27.20
2022-09-12T17:22:00.510Z,27.30
2022-09-12T17:24:27.891Z,27.20
2022-09-12T17:26:55.219Z,27.30
2022-09-12T17:29:22.320Z,27.20
2022-09-12T17:31:49.488Z,27.20
2022-09-12T17:34:17.837Z,27.20
2022-09-12T17:36:48.358Z,27.20
2022-09-12T17:39:15.746Z,27.10
2022-09-12T17:41:43.182Z,27.10
2022-09-12T17:44:12.534Z,27.10
2022-09-12T17:46:39.880Z,27.00
2022-09-12T17:49:10.611Z,27.00
2022-09-12T17:51:37.790Z,26.90
2022-09-12T17:54:08.589Z,26.80
2022-09-12T17:56:37.130Z,26.70
2022-09-12T17:59:05.799Z,26.70
2022-09-12T18:01:51.970Z,26.60
2022-09-12T18:04:20.088Z,26.50
2022-09-12T18:06:48.894Z,26.40
2022-09-12T18:09:19.495Z,26.30
2022-09-12T18:11:48.124Z,26.30
2022-09-12T18:14:15.814Z,26.20
2022-09-12T18:16:43.278Z,26.00
2022-09-12T18:19:10.996Z,26.00
2022-09-12T18:21:38.630Z,25.90
2022-09-12T18:24:06.461Z,25.80
2022-09-12T18:26:35.901Z,25.70
2022-09-12T18:29:03.076Z,25.60
2022-09-12T18:31:30.594Z,25.40
2022-09-12T18:34:01.045Z,25.40
2022-09-12T18:36:28.854Z,25.30
2022-09-12T18:38:57.430Z,25.20
2022-09-12T18:41:25.323Z,25.10
2022-09-12T18:43:57.787Z,25.00
2022-09-12T18:46:26.224Z,25.00
2022-09-12T18:48:55.531Z,24.90
2022-09-12T18:51:25.696Z,24.80
2022-09-12T18:53:56.006Z,24.80
2022-09-12T18:56:24.937Z,24.70
2022-09-12T18:58:54.362Z,24.60
2022-09-12T19:01:24.961Z,24.60
2022-09-12T19:03:53.367Z,24.40
2022-09-12T19:06:22.788Z,24.30
2022-09-12T19:08:51.267Z,24.20
2022-09-12T19:11:19.541Z,24.20
2022-09-12T19:13:48.753Z,24.20
2022-09-12T19:16:19.353Z,24.10
2022-09-12T19:18:52.384Z,24.00
2022-09-12T19:21:22.347Z,23.90
2022-09-12T19:23:49.862Z,23.90
2022-09-12T19:26:18.905Z,23.80
2022-09-12T19:28:47.232Z,23.70
2022-09-12T19:31:16.620Z,23.70
2022-09-12T19:33:44.656Z,23.70
2022-09-12T19:36:40.833Z,23.60
2022-09-12T19:39:02.308Z,23.50
2022-09-12T19:41:29.700Z,23.50
2022-09-12T19:43:57.161Z,23.40
2022-09-12T19:46:26.150Z,23.40
2022-09-12T19:48:54.213Z,23.30
2022-09-12T19:51:23.983Z,23.30
2022-09-12T19:53:51.664Z,23.30
2022-09-12T19:56:19.022Z,23.20
2022-09-12T19:58:52.065Z,23.20
2022-09-12T20:01:30.481Z,23.20
2022-09-12T20:03:58.138Z,23.20
2022-09-12T20:06:27.348Z,23.20
2022-09-12T20:08:55.018Z,23.30
2022-09-12T20:11:24.050Z,23.30
2022-09-12T20:13:51.777Z,23.40
2022-09-12T20:16:22.591Z,23.40
2022-09-12T20:18:53.208Z,23.50
2022-09-12T20:21:26.129Z,23.50
2022-09-12T20:23:54.973Z,23.50
2022-09-12T20:26:24.820Z,23.50
2022-09-12T20:28:52.229Z,23.60
2022-09-12T20:31:19.349Z,23.50
2022-09-12T20:33:51.127Z,23.50
2022-09-12T20:36:20.615Z,23.40
2022-09-12T20:38:49.657Z,23.20
2022-09-12T20:41:19.923Z,23.20
2022-09-12T20:43:50.150Z,23.20
2022-09-12T20:46:21.646Z,23.20
2022-09-12T20:48:50.472Z,23.10
2022-09-12T20:51:17.973Z,23.20
2022-09-12T20:53:45.378Z,23.10
2022-09-12T20:56:12.463Z,23.10
2022-09-12T20:58:44.058Z,23.00
2022-09-12T21:01:13.925Z,23.00
2022-09-12T21:03:42.604Z,23.10
2022-09-12T21:06:12.544Z,23.10
2022-09-12T21:08:40.182Z,23.00
2022-09-12T21:11:07.643Z,23.00
2022-09-12T21:13:34.833Z,23.10
2022-09-12T21:16:05.558Z,23.20
2022-09-12T21:18:33.750Z,23.20
2022-09-12T21:21:00.986Z,23.20
2022-09-12T21:23:28.356Z,23.20
2022-09-12T21:25:55.357Z,23.20
2022-09-12T21:28:22.460Z,23.20
2022-09-12T21:30:50.217Z,23.30
2022-09-12T21:33:20.380Z,23.20
2022-09-12T21:35:48.122Z,23.20
2022-09-12T21:38:16.083Z,23.10
2022-09-12T21:40:43.631Z,23.10
2022-09-12T21:43:12.973Z,23.00
2022-09-12T21:45:40.684Z,23.00
2022-09-12T21:48:08.568Z,22.90
2022-09-12T21:50:37.098Z,22.80
2022-09-12T21:53:04.461Z,22.80
2022-09-12T21:55:31.481Z,22.80
2022-09-12T21:57:58.576Z,22.90
2022-09-12T22:00:26.242Z,22.90
2022-09-12T22:02:53.833Z,23.00
2022-09-12T22:05:22.267Z,23.00
2022-09-12T22:07:50.853Z,23.00
2022-09-12T22:10:17.961Z,23.00
2022-09-12T22:12:46.538Z,23.10
2022-09-12T22:15:38.910Z,23.10
2022-09-12T22:18:01.001Z,23.10
2022-09-12T22:20:28.526Z,23.10
2022-09-12T22:23:15.509Z,23.10
2022-09-12T22:25:45.439Z,23.20
2022-09-12T22:28:13.783Z,23.20
2022-09-12T22:30:43.548Z,23.30
2022-09-12T22:33:10.565Z,23.40
2022-09-12T22:35:37.835Z,23.30
2022-09-12T22:38:06.239Z,23.30
2022-09-12T22:40:33.396Z,23.30
2022-09-12T22:43:01.221Z,23.50
2022-09-12T22:45:28.265Z,23.40
2022-09-12T22:48:00.844Z,23.40
2022-09-12T22:50:28.587Z,23.30
2022-09-12T22:52:55.737Z,23.30
2022-09-12T22:55:24.265Z,23.30
2022-09-12T22:57:51.437Z,23.30
2022-09-12T23:00:19.503Z,23.40
2022-09-12T23:02:46.765Z,23.30
2022-09-12T23:05:14.024Z,23.30
2022-09-12T23:07:41.054Z,23.30
2022-09-12T23:10:09.442Z,23.30
2022-09-12T23:12:37.920Z,23.30
2022-09-12T23:15:05.907Z,23.30
2022-09-12T23:17:35.939Z,23.20
2022-09-12T23:20:04.714Z,23.20
2022-09-12T23:22:32.052Z,23.20
2022-09-12T23:24:59.096Z,23.20
2022-09-12T23:27:27.290Z,23.10
2022-09-12T23:29:55.701Z,23.10
2022-09-12T23:32:22.750Z,23.10
2022-09-12T23:34:49.909Z,23.10
2022-09-12T23:37:16.971Z,23.10
2022-09-12T23:39:44.556Z,23.10
2022-09-12T23:42:12.099Z,23.00
2022-09-12T23:44:39.095Z,23.00
2022-09-12T23:47:07.556Z,23.00
2022-09-12T23:49:34.733Z,23.00
2022-09-12T23:52:02.253Z,23.00
2022-09-12T23:54:29.328Z,23.00
2022-09-12T23:56:56.362Z,23.00
2022-09-12T23:59:23.400Z,22.90
